LFPOLFOT

Guest
Details From LFPO - Paris Orly
To LFOT - Tours Val De Loire Ab
Flight Number -
Tags Routegen Generated
Created
Modified
Stats Distance 100 nm / 186 km
Max Altitude 300 ft / 91 m
Waypoints 14
Social Downloads 13
Likes 0
Share

Download

Looking for another format? Having issues loading an existing format? Contact us
Advertisement - Login to hide

Notes

Departing runway 24 LFPO. Arriving runway 1 LFOT.

Route

LFPO +48.69_+002.22 +48.68_+002.20 +48.67_+002.18 +48.66_+002.17 +48.65_+002.15 +48.20_+001.59 +47.57_+000.81 +47.56_+000.80 +47.55_+000.79 +47.54_+000.78 +47.53_+000.77 +47.51_+000.76 LFOT

ID Type Via Altitude (ft/m) Position (lat/lon) Dist (leg/tot) Name
O LFPO APT - 0 / 0 48.71997 / 2.31693 - / 0 nm
+48.69_+002.22 LATLON - 300 / 91 48.68574 / 2.22031 4 / 4 nm
+48.68_+002.20 LATLON - 300 / 91 48.67782 / 2.20197 0 / 5 nm
+48.67_+002.18 LATLON - 300 / 91 48.66887 / 2.18475 0 / 6 nm
+48.66_+002.17 LATLON - 300 / 91 48.65896 / 2.16877 0 / 6 nm
+48.65_+002.15 LATLON - 300 / 91 48.64817 / 2.15417 0 / 7 nm
+48.20_+001.59 LATLON - 300 / 91 48.20487 / 1.59316 34 / 42 nm
+47.57_+000.81 LATLON - 300 / 91 47.57453 / 0.81349 49 / 91 nm
+47.56_+000.80 LATLON - 300 / 91 47.56348 / 0.79964 0 / 92 nm
+47.55_+000.79 LATLON - 300 / 91 47.55166 / 0.78727 0 / 93 nm
+47.54_+000.78 LATLON - 300 / 91 47.53915 / 0.77648 0 / 94 nm
+47.53_+000.77 LATLON - 300 / 91 47.52606 / 0.76734 0 / 95 nm
+47.51_+000.76 LATLON - 300 / 91 47.51248 / 0.75993 0 / 96 nm
O LFOT APT - 0 / 0 47.44265 / 0.73180 4 / 100 nm

Altitude Profile

Advertisement - Login to hide

LFPO

Details ICAO LFPO (ORY)
Name Paris Orly
Region France
Timezone Europe/Paris (UTC+2.0)
Stats Elevation 291 ft / 89 m (AMSL)
Location 48.726300° 2.366980°
Runways 3
Magnetic Variation 1.065° E

METAR

LFPO 141600Z VRB04KT CAVOK 31/09 Q1018 NOSIG

Decode

TAF

TAF LFPO 141100Z 1412/1518 03005KT CAVOK= TAF LFQQ 141100Z 1412/1518 28005KT CAVOK BECMG 1413/1416 35010KT BECMG 1419/1422 VRB02KT

Decode

Departure Runways

ID Width Length Bearing (true/mag) Surface Threshold Overrun Markings Lighting
02 197 ft / 60 m 7,875 ft / 2,400 m 18.30° / 17.24° CONCRETE 0 ft / 0 m 492 ft / 150 m APP CENTERLINE EDGE THRESHOLD ALSF-II TDZ REIL-OMNI
06 148 ft / 45 m 11,953 ft / 3,643 m 61.78° / 60.72° ASPHALT 984 ft / 300 m 482 ft / 147 m PREC-APP CENTERLINE EDGE THRESHOLD ALSF-II TDZ REIL-OMNI
07 148 ft / 45 m 10,868 ft / 3,313 m 74.34° / 73.28° CONCRETE 0 ft / 0 m 0 ft / 0 m APP CENTERLINE EDGE THRESHOLD ALSF-II TDZ REIL-OMNI
20 197 ft / 60 m 7,875 ft / 2,400 m 198.31° / 197.24° CONCRETE 0 ft / 0 m 492 ft / 150 m APP CENTERLINE EDGE THRESHOLD REIL-OMNI
24 148 ft / 45 m 11,953 ft / 3,643 m 241.82° / 240.75° ASPHALT 0 ft / 0 m 492 ft / 150 m PREC-APP CENTERLINE EDGE THRESHOLD ALSF-I TDZ REIL-OMNI
25 148 ft / 45 m 10,868 ft / 3,313 m 254.38° / 253.31° CONCRETE 1,427 ft / 435 m 0 ft / 0 m PREC-APP CENTERLINE EDGE THRESHOLD ALSF-II TDZ REIL-OMNI

LFOT

Details ICAO LFOT (TUF)
Name Tours Val de Loire
Region France
Timezone Europe/Paris (UTC+2.0)
Stats Elevation 355 ft / 108 m (AMSL)
Location 47.432200° 0.727609°
Runways 1
Magnetic Variation 0.651° E

METAR

LFOT 141600Z AUTO 34004KT 300V030 9999 ////// 29/12 Q1019

Decode

TAF

TAF LFOT 141100Z 1412/1512 36005KT CAVOK

Decode

Destination Runways

ID Width Length Bearing (true/mag) Surface Threshold Overrun Markings Lighting
02 148 ft / 45 m 7,895 ft / 2,406 m 15.23° / 14.58° CONCRETE 0 ft / 0 m 961 ft / 293 m PREC-APP CENTERLINE EDGE THRESHOLD REIL-OMNI
20 148 ft / 45 m 7,895 ft / 2,406 m 195.24° / 194.58° CONCRETE 0 ft / 0 m 955 ft / 291 m PREC-APP CENTERLINE EDGE THRESHOLD ALSF-I TDZ REIL-OMNI

Approach Navaids

Runway Type Ident Frequency Range Bearing (true/mag) Slope Elevation
20 LOC-ILS TS 110.55 MHz 18 nm / 33 km 195.21° / 194.56 ° - 341 ft / 104 m (AMSL)
20 GS TS 110.55 MHz 10 nm / 19 km 195.44° / 194.79 ° 3.00° 341 ft / 104 m (AMSL)
20 DME TS 110.55 MHz 18 nm / 33 km - - 408 ft / 124 m (AMSL)

Popular Alternatives